Time;durP1;ratioP1;P1;durP2;ratioP2;P2;SDS_P1;SDS_P2;PMS_P1;PMS_P2;Temp;Humidity;BMP_temperature;BMP_pressure;BME280_temperature;BME280_humidity;BME280_pressure;Samples;Min_cycle;Max_cycle;Signal;HPM_P1;HPM_P2
2022/07/16 00:03:15;;;;;;;4.57;4.17;;;;;;;14.75;100.00;101541.50;5033272;28;20470;-44
2022/07/16 00:05:45;;;;;;;8.03;5.23;;;;;;;14.73;100.00;101541.66;5034081;28;20440;-45
2022/07/16 00:08:13;;;;;;;4.20;3.90;;;;;;;14.75;100.00;101530.75;5033770;28;20809;-44
2022/07/16 00:10:40;;;;;;;5.57;4.50;;;;;;;14.77;100.00;101542.09;5033605;28;20460;-43
2022/07/16 00:13:08;;;;;;;5.57;4.90;;;;;;;14.71;100.00;101541.06;5032421;28;20550;-45
2022/07/16 00:15:35;;;;;;;5.23;4.10;;;;;;;14.71;100.00;101532.19;5033798;28;20791;-42
2022/07/16 00:20:50;;;;;;;4.63;4.40;;;;;;;14.71;100.00;101530.31;5033750;28;20459;-44
2022/07/16 00:23:18;;;;;;;4.90;4.60;;;;;;;14.66;100.00;101522.06;5032679;28;20880;-45
2022/07/16 00:25:45;;;;;;;6.40;4.90;;;;;;;14.64;100.00;101531.31;5033649;28;20439;-44
2022/07/16 00:28:13;;;;;;;5.47;4.70;;;;;;;14.63;99.77;101541.25;5033305;28;20951;-44
2022/07/16 00:30:40;;;;;;;4.97;4.50;;;;;;;14.56;94.71;101547.63;5033341;28;20540;-44
2022/07/16 00:33:08;;;;;;;6.60;4.40;;;;;;;14.51;90.70;101544.75;5032558;28;20471;-45
2022/07/16 00:35:36;;;;;;;4.60;4.20;;;;;;;14.43;88.11;101545.72;5033142;28;20439;-48
2022/07/16 00:38:07;;;;;;;4.43;4.17;;;;;;;14.42;86.73;101545.94;5033159;28;20476;-46
2022/07/16 00:40:34;;;;;;;5.40;4.50;;;;;;;14.37;84.80;101542.00;5033452;28;20452;-43
2022/07/16 00:43:02;;;;;;;4.40;4.00;;;;;;;14.34;85.80;101546.94;5032513;28;20555;-45
2022/07/16 00:45:30;;;;;;;3.80;3.60;;;;;;;14.30;83.96;101537.63;5033193;28;20438;-44
2022/07/16 00:47:57;;;;;;;3.70;3.40;;;;;;;14.21;86.75;101536.97;5032998;28;20538;-45
2022/07/16 00:50:25;;;;;;;4.10;3.80;;;;;;;14.18;87.18;101541.91;5033144;28;20482;-44
2022/07/16 00:52:53;;;;;;;4.10;3.90;;;;;;;14.11;86.81;101533.00;5032474;28;20547;-48
2022/07/16 00:55:22;;;;;;;3.23;3.03;;;;;;;14.02;88.96;101529.69;5033009;28;20474;-45
2022/07/16 00:57:50;;;;;;;3.77;3.47;;;;;;;14.05;86.52;101542.69;5032899;28;20857;-43
2022/07/16 01:00:17;;;;;;;4.27;3.97;;;;;;;14.02;86.98;101542.25;5032907;28;20539;-44
2022/07/16 01:02:45;;;;;;;3.97;3.57;;;;;;;14.02;85.72;101531.53;5032301;28;20464;-47
2022/07/16 01:05:13;;;;;;;4.50;4.20;;;;;;;13.97;85.15;101529.47;5032687;28;20450;-44
2022/07/16 01:07:41;;;;;;;5.47;4.20;;;;;;;13.96;84.93;101529.63;5032734;28;20436;-44
2022/07/16 01:10:09;;;;;;;4.00;3.80;;;;;;;13.99;83.98;101529.25;5032721;28;20534;-45
2022/07/16 01:12:39;;;;;;;4.70;4.23;;;;;;;14.04;82.80;101532.13;5032045;28;20578;-43
2022/07/16 01:15:07;;;;;;;4.73;4.27;;;;;;;14.04;83.67;101527.59;5032618;28;20538;-43
2022/07/16 01:17:35;;;;;;;5.37;4.83;;;;;;;14.02;84.71;101526.16;5032702;28;20486;-45
2022/07/16 01:20:03;;;;;;;4.60;4.30;;;;;;;14.07;82.93;101531.75;5032734;28;20436;-46
2022/07/16 01:22:31;;;;;;;3.93;3.63;;;;;;;14.00;85.78;101541.63;5031955;28;20479;-45
2022/07/16 01:25:00;;;;;;;6.50;4.17;;;;;;;14.00;84.51;101537.09;5031919;28;20443;-44
2022/07/16 01:27:27;;;;;;;4.67;4.17;;;;;;;13.97;85.16;101536.66;5032199;28;20474;-46
2022/07/16 01:29:55;;;;;;;4.63;4.10;;;;;;;14.00;84.62;101541.63;5032625;28;20523;-44
2022/07/16 01:32:22;;;;;;;4.00;3.60;;;;;;;13.92;87.30;101539.13;5031465;28;21063;-45
2022/07/16 01:34:50;;;;;;;4.50;3.90;;;;;;;13.88;89.14;101536.00;5032288;28;20489;-44
2022/07/16 01:37:18;;;;;;;3.10;3.00;;;;;;;13.80;91.73;101531.63;5032582;28;20532;-46
2022/07/16 01:39:45;;;;;;;3.90;3.60;;;;;;;13.78;93.97;101543.56;5032221;28;20815;-45
2022/07/16 01:42:14;;;;;;;3.90;3.60;;;;;;;13.77;95.99;101536.56;5031519;28;20468;-45
2022/07/16 01:44:42;;;;;;;4.33;4.03;;;;;;;13.74;97.31;101539.63;5032371;28;20549;-46
2022/07/16 01:47:10;;;;;;;3.67;3.20;;;;;;;13.73;98.78;101538.00;5032262;28;20486;-45
2022/07/16 01:49:40;;;;;;;6.23;4.07;;;;;;;13.78;96.78;101539.03;5032154;28;20432;-46
2022/07/16 01:52:11;;;;;;;4.40;4.20;;;;;;;13.75;97.29;101534.09;5031392;28;20551;-46
2022/07/16 01:54:42;;;;;;;4.73;3.97;;;;;;;13.80;95.48;101542.34;5031889;28;20479;-45
2022/07/16 01:57:10;;;;;;;3.90;3.70;;;;;;;13.78;96.67;101543.56;5032024;28;20447;-48
2022/07/16 01:59:40;;;;;;;3.77;3.67;;;;;;;13.77;97.19;101544.59;5031831;28;20562;-47
2022/07/16 02:02:08;;;;;;;5.33;4.90;;;;;;;13.71;97.33;101543.53;5031136;28;20464;-48
2022/07/16 02:04:36;;;;;;;5.10;4.70;;;;;;;13.66;98.61;101546.00;5031955;28;20959;-46
2022/07/16 02:07:04;;;;;;;4.23;4.03;;;;;;;13.61;97.89;101548.44;5031665;28;20446;-46
2022/07/16 02:09:31;;;;;;;4.80;4.40;;;;;;;13.64;94.60;101553.41;5032187;28;20463;-45
2022/07/16 02:11:59;;;;;;;4.67;4.37;;;;;;;13.64;96.12;101555.25;5031588;28;20468;-45
2022/07/16 02:14:27;;;;;;;4.13;3.93;;;;;;;13.62;96.08;101549.28;5031853;28;20975;-45
2022/07/16 02:16:56;;;;;;;4.33;4.00;;;;;;;13.58;97.07;101553.34;5032144;28;20436;-47
2022/07/16 02:19:23;;;;;;;5.57;3.83;;;;;;;13.55;95.67;101543.88;5031975;28;20841;-44
2022/07/16 02:21:51;;;;;;;3.77;3.53;;;;;;;13.53;96.56;101545.91;5031190;28;20494;-46
2022/07/16 02:24:19;;;;;;;4.97;4.07;;;;;;;13.53;97.73;101545.09;5031875;28;20440;-46
2022/07/16 02:26:47;;;;;;;3.87;3.67;;;;;;;13.51;98.98;101537.22;5031935;28;20446;-46
2022/07/16 02:29:14;;;;;;;4.50;4.03;;;;;;;13.41;100.00;101544.78;5032179;28;20773;-46
2022/07/16 02:31:42;;;;;;;14.37;3.93;;;;;;;13.39;100.00;101556.72;5031657;28;20548;-45
2022/07/16 02:34:11;;;;;;;5.00;3.53;;;;;;;13.42;99.00;101559.00;5031401;28;20421;-44
2022/07/16 02:36:38;;;;;;;4.17;3.63;;;;;;;13.42;98.92;101556.34;5032649;28;21016;-44
2022/07/16 02:39:06;;;;;;;4.27;3.87;;;;;;;13.38;100.00;101557.75;5035746;28;20499;-44
2022/07/16 02:41:34;;;;;;;4.33;3.93;;;;;;;13.28;100.00;101566.13;5035166;28;20866;-45
2022/07/16 02:44:01;;;;;;;4.40;4.00;;;;;;;13.32;100.00;101567.38;5035566;28;20432;-45
2022/07/16 02:46:29;;;;;;;4.60;4.30;;;;;;;13.32;100.00;101557.50;5035581;28;20574;-44
2022/07/16 02:48:57;;;;;;;4.40;4.20;;;;;;;13.28;100.00;101564.28;5035306;28;20424;-46
2022/07/16 02:51:26;;;;;;;4.10;3.80;;;;;;;13.30;100.00;101572.94;5035075;28;20533;-44
2022/07/16 02:53:53;;;;;;;4.50;4.30;;;;;;;13.21;100.00;101563.41;5034973;28;20459;-48
2022/07/16 02:56:21;;;;;;;7.73;4.43;;;;;;;13.22;100.00;101575.78;5035358;28;20439;-44
2022/07/16 02:58:49;;;;;;;4.37;3.97;;;;;;;13.27;100.00;101583.22;5035142;28;20553;-45
2022/07/16 03:01:17;;;;;;;4.90;4.60;;;;;;;13.25;100.00;101577.22;5034404;28;20539;-45
2022/07/16 03:03:44;;;;;;;5.03;4.17;;;;;;;13.23;100.00;101574.72;5035022;28;20436;-48
2022/07/16 03:06:12;;;;;;;3.70;3.50;;;;;;;13.26;100.00;101585.06;5035207;28;20471;-44
2022/07/16 03:08:41;;;;;;;5.03;4.60;;;;;;;13.24;100.00;101595.16;5035048;28;20442;-45
2022/07/16 03:11:09;;;;;;;6.20;4.00;;;;;;;13.27;100.00;101588.56;5034500;28;20965;-44
2022/07/16 03:13:36;;;;;;;4.73;4.43;;;;;;;13.22;100.00;101585.66;5034711;28;20442;-44
2022/07/16 03:16:05;;;;;;;4.07;3.50;;;;;;;13.24;100.00;101591.63;5034831;28;20494;-45
2022/07/16 03:18:32;;;;;;;4.50;4.10;;;;;;;13.19;100.00;101602.09;5034910;28;20432;-45
2022/07/16 03:21:00;;;;;;;5.60;4.27;;;;;;;13.23;100.00;101595.34;5034454;28;20463;-43
2022/07/16 03:23:27;;;;;;;9.13;4.03;;;;;;;13.22;100.00;101607.91;5034510;28;20436;-44
2022/07/16 03:25:56;;;;;;;6.90;4.30;;;;;;;13.16;100.00;101603.31;5034793;28;20861;-43
2022/07/16 03:28:24;;;;;;;5.37;4.40;;;;;;;13.18;100.00;101606.63;5034486;28;20438;-46
2022/07/16 03:30:52;;;;;;;4.90;4.50;;;;;;;13.19;100.00;101608.31;5034792;28;20448;-43
2022/07/16 03:33:19;;;;;;;4.33;3.73;;;;;;;13.18;100.00;101614.66;5033737;28;20468;-43
2022/07/16 03:35:50;;;;;;;5.53;4.50;;;;;;;13.22;100.00;101615.13;5034451;28;20432;-44
2022/07/16 03:41:04;;;;;;;5.77;4.50;;;;;;;13.23;100.00;101619.47;5030674;28;20816;-44
2022/07/16 03:43:31;;;;;;;5.67;4.70;;;;;;;13.26;100.00;101617.19;5031805;28;20524;-48
2022/07/16 03:45:59;;;;;;;5.63;4.20;;;;;;;13.22;100.00;101615.94;5034263;28;20881;-45
2022/07/16 03:48:27;;;;;;;4.17;3.63;;;;;;;13.20;100.00;101627.88;5033327;28;20459;-46
2022/07/16 03:50:54;;;;;;;5.17;3.73;;;;;;;13.20;100.00;101627.88;5034308;28;20452;-44
2022/07/16 03:53:22;;;;;;;4.87;3.90;;;;;;;13.19;100.00;101634.25;5033457;28;20531;-44
2022/07/16 03:55:50;;;;;;;4.20;3.80;;;;;;;13.21;100.00;101638.38;5034362;28;20446;-46
2022/07/16 03:58:18;;;;;;;4.47;3.23;;;;;;;13.20;100.00;101643.94;5034267;28;20531;-45
2022/07/16 04:00:46;;;;;;;6.50;4.90;;;;;;;13.16;100.00;101642.66;5034148;28;20480;-43
2022/07/16 04:03:14;;;;;;;4.07;3.77;;;;;;;13.20;100.00;101650.13;5033396;28;21179;-47
2022/07/16 04:05:42;;;;;;;3.30;3.00;;;;;;;13.26;100.00;101656.59;5033870;28;20964;-45
2022/07/16 04:08:10;;;;;;;6.40;3.60;;;;;;;13.28;100.00;101658.03;5033984;28;20446;-46
2022/07/16 04:10:38;;;;;;;7.67;3.43;;;;;;;13.31;100.00;101659.50;5034174;28;20452;-45
2022/07/16 04:13:05;;;;;;;7.10;3.63;;;;;;;13.31;100.00;101656.81;5033266;28;20475;-45
2022/07/16 04:15:35;;;;;;;5.00;3.23;;;;;;;13.38;100.00;101655.00;5033913;28;20442;-47
2022/07/16 04:18:03;;;;;;;5.03;3.20;;;;;;;13.39;100.00;101661.22;5033827;28;20432;-46
2022/07/16 04:20:30;;;;;;;4.37;3.27;;;;;;;13.52;100.00;101658.66;5033515;28;20468;-45
2022/07/16 04:22:58;;;;;;;4.50;3.60;;;;;;;13.61;100.00;101665.53;5033133;28;20552;-47
2022/07/16 04:25:26;;;;;;;7.80;3.53;;;;;;;13.53;100.00;101660.31;5033876;28;20432;-44
2022/07/16 04:27:54;;;;;;;7.77;3.20;;;;;;;13.74;100.00;101657.56;5033788;28;20440;-46
2022/07/16 04:30:21;;;;;;;6.13;3.73;;;;;;;14.22;100.00;101662.03;5033723;28;20489;-45
2022/07/16 04:32:51;;;;;;;5.50;3.67;;;;;;;15.00;99.17;101662.56;5032700;28;20464;-46
2022/07/16 04:35:18;;;;;;;7.80;3.07;;;;;;;15.76;89.49;101664.75;5033596;28;20424;-48
2022/07/16 04:37:46;;;;;;;8.57;3.40;;;;;;;16.51;82.40;101666.03;5033482;28;20971;-45
2022/07/16 04:40:15;;;;;;;5.80;3.53;;;;;;;16.97;79.19;101663.94;5033423;28;20621;-45
2022/07/16 04:42:45;;;;;;;4.13;3.03;;;;;;;17.63;75.98;101666.22;5032590;28;20993;-45
2022/07/16 04:45:14;;;;;;;4.53;3.53;;;;;;;18.18;74.62;101667.16;5033241;28;20527;-51
2022/07/16 04:47:41;;;;;;;4.17;3.60;;;;;;;18.69;70.41;101674.88;5032877;28;20473;-45
2022/07/16 04:50:11;;;;;;;3.57;3.17;;;;;;;18.97;69.60;101675.13;5033166;28;20435;-45
2022/07/16 04:52:39;;;;;;;5.90;3.27;;;;;;;19.48;67.80;101679.16;5032445;28;20538;-45
2022/07/16 04:55:08;;;;;;;5.20;3.37;;;;;;;20.19;67.11;101679.78;5033109;28;20428;-45
2022/07/16 04:57:36;;;;;;;7.30;3.80;;;;;;;20.43;62.11;101675.19;5033012;28;20809;-45
2022/07/16 05:00:05;;;;;;;3.40;3.03;;;;;;;20.91;64.56;101672.91;5032553;28;20554;-45
2022/07/16 05:05:31;;;;;;;4.13;3.73;;;;;;;21.98;56.74;101678.34;4997571;28;20466;-47
2022/07/16 05:07:59;;;;;;;3.93;3.60;;;;;;;21.97;58.22;101680.22;5032793;28;20459;-47
2022/07/16 05:10:27;;;;;;;4.20;3.27;;;;;;;22.07;56.69;101684.16;5032446;28;20423;-46
2022/07/16 05:12:56;;;;;;;4.87;3.93;;;;;;;22.25;56.54;101684.66;5030994;28;20551;-48
2022/07/16 05:15:25;;;;;;;4.03;3.70;;;;;;;21.86;56.41;101685.72;5029296;28;20538;-47
2022/07/16 05:17:53;;;;;;;3.60;3.30;;;;;;;22.19;58.62;101685.66;5031247;28;20476;-51
2022/07/16 05:20:21;;;;;;;3.63;3.43;;;;;;;22.27;52.74;101685.25;5032153;28;20471;-46
2022/07/16 05:22:50;;;;;;;10.30;4.50;;;;;;;22.57;49.95;101687.56;5030739;28;20466;-44
2022/07/16 05:25:18;;;;;;;6.40;4.00;;;;;;;22.48;50.30;101689.91;5032298;28;20434;-45
2022/07/16 05:27:46;;;;;;;4.33;3.80;;;;;;;22.69;49.75;101696.44;5031462;28;20440;-46
2022/07/16 05:30:14;;;;;;;6.43;4.40;;;;;;;22.59;52.27;101690.84;5032114;28;20860;-46
2022/07/16 05:32:42;;;;;;;4.10;3.73;;;;;;;22.95;49.66;101700.25;5030449;28;20806;-44
2022/07/16 05:35:11;;;;;;;6.47;4.20;;;;;;;22.30;50.46;101700.25;5031879;28;20761;-45
2022/07/16 05:37:39;;;;;;;6.00;4.40;;;;;;;21.86;51.23;101697.38;5030872;28;20440;-45
2022/07/16 05:40:10;;;;;;;5.30;4.00;;;;;;;22.17;50.96;101697.88;5031625;28;20475;-46
2022/07/16 05:42:38;;;;;;;4.77;3.63;;;;;;;22.29;52.63;101701.31;5030411;28;20471;-49
2022/07/16 05:45:12;;;;;;;6.37;3.97;;;;;;;22.47;48.90;101704.56;5031742;28;20947;-47
2022/07/16 05:47:40;;;;;;;4.57;3.93;;;;;;;22.26;50.05;101708.06;5030924;28;20436;-45
2022/07/16 05:50:08;;;;;;;6.57;3.63;;;;;;;21.52;51.68;101709.31;5031618;28;20522;-47
2022/07/16 05:52:36;;;;;;;3.90;3.60;;;;;;;21.58;51.76;101718.38;5029867;28;20476;-46
2022/07/16 05:55:04;;;;;;;4.10;3.90;;;;;;;21.50;52.92;101711.47;5011468;28;20495;-45
2022/07/16 05:57:34;;;;;;;4.80;4.30;;;;;;;21.23;54.03;101715.84;5011602;28;20464;-48
2022/07/16 06:00:01;;;;;;;4.50;4.10;;;;;;;19.98;55.82;101729.13;5011467;28;20481;-43
2022/07/16 06:02:29;;;;;;;5.17;4.67;;;;;;;19.10;59.31;101728.19;5011158;28;20563;-43
2022/07/16 06:04:57;;;;;;;4.40;4.00;;;;;;;19.74;58.01;101730.97;5012155;28;20439;-46
2022/07/16 06:07:24;;;;;;;8.07;4.37;;;;;;;20.40;56.49;101727.97;5011984;28;21024;-46
2022/07/16 06:09:52;;;;;;;4.23;3.93;;;;;;;21.19;54.28;101725.53;5012044;28;20471;-45
2022/07/16 06:12:20;;;;;;;5.33;4.00;;;;;;;21.84;51.04;101718.53;5015464;28;20470;-44
2022/07/16 06:14:49;;;;;;;6.20;4.20;;;;;;;21.26;50.65;101732.47;5031442;28;20899;-46
2022/07/16 06:17:17;;;;;;;4.60;3.80;;;;;;;21.41;53.29;101732.72;5051335;28;20525;-46
2022/07/16 06:19:44;;;;;;;4.13;3.70;;;;;;;21.72;52.36;101727.84;5051670;28;20865;-45
2022/07/16 06:22:12;;;;;;;6.03;4.40;;;;;;;21.50;51.76;101744.84;5050867;28;20480;-44
2022/07/16 06:24:40;;;;;;;6.13;4.47;;;;;;;20.64;53.94;101738.78;5051350;28;20953;-45
2022/07/16 06:27:07;;;;;;;4.60;4.30;;;;;;;19.74;57.41;101749.13;5051437;28;20449;-46
2022/07/16 06:29:35;;;;;;;4.77;4.40;;;;;;;19.11;57.67;101748.78;5051464;28;20863;-49
2022/07/16 06:32:05;;;;;;;7.97;4.43;;;;;;;18.44;63.15;101757.84;5048629;28;20470;-43
2022/07/16 06:34:32;;;;;;;5.20;4.73;;;;;;;17.95;65.73;101764.94;5031421;28;20471;-43
2022/07/16 06:37:00;;;;;;;5.07;4.40;;;;;;;17.53;65.95;101752.16;5031517;28;20439;-47
2022/07/16 06:39:27;;;;;;;5.93;4.10;;;;;;;17.40;66.89;101760.31;5031460;28;20929;-45
2022/07/16 06:41:55;;;;;;;4.57;4.17;;;;;;;18.48;60.12;101754.47;5030881;28;20495;-46
2022/07/16 06:44:23;;;;;;;5.77;5.27;;;;;;;18.99;58.60;101759.53;5031233;28;20435;-45
2022/07/16 06:46:51;;;;;;;6.33;4.17;;;;;;;18.95;57.64;101752.09;5031688;28;20530;-46
2022/07/16 06:49:20;;;;;;;3.90;3.60;;;;;;;19.45;56.60;101758.09;5031697;28;20797;-47
2022/07/16 06:51:47;;;;;;;10.10;5.17;;;;;;;20.18;56.54;101767.53;5031006;28;20506;-44
2022/07/16 06:54:15;;;;;;;4.30;3.90;;;;;;;20.05;54.24;101767.75;5031256;28;20428;-47
2022/07/16 06:56:43;;;;;;;6.03;4.43;;;;;;;20.61;54.97;101772.59;5031259;28;20534;-44
2022/07/16 06:59:16;;;;;;;7.80;4.03;;;;;;;20.38;54.56;101773.44;5031596;28;20502;-48
2022/07/16 07:01:44;;;;;;;4.50;4.17;;;;;;;20.95;52.14;101781.72;5030614;28;20473;-46
2022/07/16 07:04:12;;;;;;;4.73;3.90;;;;;;;20.84;52.51;101778.00;5031334;28;20431;-49
2022/07/16 07:06:41;;;;;;;4.03;3.70;;;;;;;20.04;52.68;101781.53;5031395;28;20444;-48
2022/07/16 07:09:09;;;;;;;6.60;3.93;;;;;;;19.77;53.64;101792.75;5031360;28;20432;-46
2022/07/16 07:11:37;;;;;;;5.70;4.10;;;;;;;19.76;55.98;101801.97;5031059;28;20473;-48
2022/07/16 07:14:05;;;;;;;5.70;4.43;;;;;;;19.88;56.79;101797.41;5031330;28;20438;-48
2022/07/16 07:16:33;;;;;;;10.10;4.70;;;;;;;20.27;54.98;101804.06;5031438;28;20446;-47
2022/07/16 07:19:00;;;;;;;7.23;4.10;;;;;;;20.54;54.96;101796.31;5031272;28;20514;-46
2022/07/16 07:21:28;;;;;;;5.23;3.83;;;;;;;19.51;57.45;101798.56;5030691;28;20494;-47
2022/07/16 07:23:58;;;;;;;4.40;4.03;;;;;;;19.50;55.96;101798.81;5031918;28;20976;-45
2022/07/16 07:26:25;;;;;;;5.60;4.83;;;;;;;19.23;56.24;101798.31;5034987;28;20435;-47
2022/07/16 07:28:53;;;;;;;4.63;3.80;;;;;;;18.24;56.69;101803.94;5034922;28;20815;-46
2022/07/16 07:31:21;;;;;;;5.03;3.57;;;;;;;17.98;57.53;101821.16;5030917;28;20447;-48
2022/07/16 07:33:48;;;;;;;4.50;4.20;;;;;;;17.59;59.81;101814.16;5032129;28;20432;-45
2022/07/16 07:36:16;;;;;;;4.63;4.20;;;;;;;18.40;56.74;101816.88;5033712;28;20446;-46
2022/07/16 07:38:44;;;;;;;4.57;4.17;;;;;;;18.85;55.66;101808.53;5034007;28;20531;-48
2022/07/16 07:41:13;;;;;;;10.17;4.20;;;;;;;19.15;57.23;101825.66;5033681;28;21063;-47
2022/07/16 07:43:40;;;;;;;5.17;4.67;;;;;;;18.90;57.25;101820.34;5032557;28;20434;-46
2022/07/16 07:46:08;;;;;;;4.67;4.10;;;;;;;19.41;55.82;101819.97;5034593;28;20524;-48
2022/07/16 07:48:36;;;;;;;10.77;4.77;;;;;;;19.33;54.90;101821.06;5054414;28;20939;-50
2022/07/16 07:51:04;;;;;;;6.87;3.90;;;;;;;19.39;51.94;101813.94;5053392;28;20757;-50
2022/07/16 07:53:34;;;;;;;9.13;3.40;;;;;;;19.70;51.72;101812.88;5054203;28;20533;-47
2022/07/16 07:56:01;;;;;;;8.60;3.93;;;;;;;20.02;52.82;101814.25;5054300;28;20457;-47
2022/07/16 07:58:30;;;;;;;5.00;3.90;;;;;;;19.13;53.96;101812.38;5054225;28;20834;-46
2022/07/16 08:00:58;;;;;;;5.30;3.83;;;;;;;18.85;53.46;101813.94;5053340;28;20466;-47
2022/07/16 08:03:46;;;;;;;6.60;4.07;;;;;;;17.82;58.20;101843.31;5053683;28;20434;-44
2022/07/16 08:06:14;;;;;;;6.57;4.00;;;;;;;17.08;59.03;101829.56;5053982;28;20442;-45
2022/07/16 08:08:42;;;;;;;6.20;4.10;;;;;;;16.70;61.68;101824.03;5053782;28;20435;-47
2022/07/16 08:11:10;;;;;;;3.93;3.63;;;;;;;16.49;63.11;101840.41;5053155;28;20545;-45
2022/07/16 08:13:38;;;;;;;5.93;4.20;;;;;;;16.66;64.11;101840.84;5053374;28;20430;-45
2022/07/16 08:16:26;;;;;;;7.03;4.67;;;;;;;16.98;64.36;101846.16;5053474;28;20434;-47
2022/07/16 08:18:54;;;;;;;4.50;4.20;;;;;;;17.05;63.76;101849.63;5053636;28;20434;-47
2022/07/16 08:21:22;;;;;;;4.37;4.07;;;;;;;17.09;57.55;101844.66;5053180;28;20481;-46
2022/07/16 08:26:35;;;;;;;4.37;4.13;;;;;;;16.93;59.48;101842.44;5053487;28;20478;-46
2022/07/16 08:29:04;;;;;;;4.07;3.60;;;;;;;17.43;62.00;101833.53;5053438;28;20430;-45
2022/07/16 08:31:32;;;;;;;8.37;4.30;;;;;;;17.79;64.43;101832.13;5052916;28;20463;-45
2022/07/16 08:34:00;;;;;;;8.03;4.37;;;;;;;17.77;64.46;101836.91;5034563;28;20432;-46
2022/07/16 08:36:28;;;;;;;8.30;4.10;;;;;;;17.24;63.23;101860.56;5033067;28;20806;-45
2022/07/16 08:38:56;;;;;;;5.93;4.20;;;;;;;16.68;66.09;101850.38;5033126;28;20941;-45
2022/07/16 08:41:25;;;;;;;7.77;4.20;;;;;;;17.04;65.13;101872.25;5032832;28;20467;-49
2022/07/16 08:43:54;;;;;;;5.73;3.80;;;;;;;17.23;58.83;101867.03;5033164;28;20432;-47
2022/07/16 08:46:23;;;;;;;9.90;4.30;;;;;;;17.41;62.10;101850.97;5033280;28;21020;-47
2022/07/16 08:48:52;;;;;;;4.60;4.17;;;;;;;17.65;61.73;101861.84;5033217;28;20799;-45
2022/07/16 08:51:30;;;;;;;3.93;3.73;;;;;;;17.76;60.87;101852.25;5032530;28;20470;-45
2022/07/16 08:54:02;;;;;;;5.27;4.10;;;;;;;17.83;62.75;101861.13;5032847;28;20420;-48
2022/07/16 08:56:29;;;;;;;6.70;3.43;;;;;;;18.03;60.28;101863.72;5033042;28;21008;-44
2022/07/16 08:58:57;;;;;;;6.90;3.93;;;;;;;18.24;55.85;101866.88;5033024;28;20797;-47
2022/07/16 09:01:29;;;;;;;3.70;3.37;;;;;;;18.24;58.19;101871.44;5032156;28;20474;-48
2022/07/16 09:03:57;;;;;;;4.03;3.50;;;;;;;18.36;57.28;101874.25;5032520;28;20436;-46
2022/07/16 09:06:26;;;;;;;5.07;3.43;;;;;;;18.28;55.98;101874.53;5032718;28;20440;-47
2022/07/16 09:08:54;;;;;;;3.37;3.17;;;;;;;18.05;57.63;101889.44;5032973;28;20507;-46
2022/07/16 09:11:24;;;;;;;4.10;3.70;;;;;;;17.70;56.68;101896.28;5032366;28;20525;-49
2022/07/16 09:14:11;;;;;;;3.43;3.30;;;;;;;17.74;55.41;101878.63;5032744;28;20493;-45
2022/07/16 09:16:42;;;;;;;5.70;3.40;;;;;;;17.99;58.14;101876.81;5032959;28;20480;-47
2022/07/16 09:19:12;;;;;;;4.70;3.37;;;;;;;17.78;54.02;101890.63;5032555;28;20607;-47
2022/07/16 09:21:59;;;;;;;4.13;3.73;;;;;;;17.65;55.71;101890.72;5032019;28;20590;-45
2022/07/16 09:24:40;;;;;;;5.93;3.80;;;;;;;17.79;59.30;101902.25;5032515;28;20474;-45
2022/07/16 09:27:09;;;;;;;5.63;3.40;;;;;;;17.79;55.86;101891.47;5032585;28;20440;-45
2022/07/16 09:29:45;;;;;;;3.50;3.20;;;;;;;18.03;51.93;101886.13;5032357;28;20436;-44
2022/07/16 09:32:27;;;;;;;3.03;2.80;;;;;;;18.47;55.55;101893.28;5031643;28;20461;-50
2022/07/16 09:35:02;;;;;;;4.47;3.40;;;;;;;18.52;57.88;101908.84;5032135;28;20481;-46
2022/07/16 09:37:46;;;;;;;4.17;3.20;;;;;;;18.33;52.99;101901.69;5032511;28;20535;-46
2022/07/16 09:40:15;;;;;;;4.97;4.23;;;;;;;17.90;56.61;101931.25;5032347;28;20801;-45
2022/07/16 09:42:42;;;;;;;4.00;3.70;;;;;;;17.82;57.40;101923.41;5031494;28;20475;-46
2022/07/16 09:45:21;;;;;;;8.57;4.50;;;;;;;17.60;55.50;101928.28;5032128;28;20531;-49
2022/07/16 09:47:50;;;;;;;4.23;3.50;;;;;;;17.61;58.94;101946.13;5030649;28;20454;-47
2022/07/16 09:50:18;;;;;;;3.57;3.20;;;;;;;17.33;59.11;101937.47;5032094;28;20428;-45
2022/07/16 09:52:46;;;;;;;5.80;3.70;;;;;;;17.47;60.88;101939.13;5031390;28;20456;-46
2022/07/16 09:55:14;;;;;;;7.30;4.00;;;;;;;17.74;60.88;101934.47;5031949;28;20436;-46
2022/07/16 09:57:43;;;;;;;4.60;4.20;;;;;;;18.01;61.44;101941.38;5032067;28;20470;-45
2022/07/16 10:00:12;;;;;;;7.60;3.53;;;;;;;17.98;57.81;101931.03;5031826;28;20467;-47
2022/07/16 10:02:40;;;;;;;4.50;3.60;;;;;;;17.90;58.59;101937.50;5031232;28;20475;-47
2022/07/16 10:05:09;;;;;;;3.87;3.43;;;;;;;17.77;59.30;101932.16;5032069;28;20463;-44
2022/07/16 10:07:37;;;;;;;11.33;4.13;;;;;;;17.92;56.31;101938.09;5032017;28;20442;-47
2022/07/16 10:10:06;;;;;;;3.60;3.30;;;;;;;17.98;58.01;101948.03;5031878;28;21036;-45
2022/07/16 10:12:35;;;;;;;3.50;3.20;;;;;;;17.79;60.97;101954.38;5031382;28;20463;-45
2022/07/16 10:15:03;;;;;;;5.57;3.57;;;;;;;17.47;61.69;101948.00;5032086;28;20465;-47
2022/07/16 10:17:34;;;;;;;4.07;3.40;;;;;;;17.48;63.12;101946.16;5031841;28;20442;-45
2022/07/16 10:20:07;;;;;;;6.50;4.00;;;;;;;17.43;62.40;101946.78;5032015;28;20439;-46
2022/07/16 10:22:38;;;;;;;7.33;3.73;;;;;;;17.94;59.31;101943.28;5031217;28;20890;-46
2022/07/16 10:25:12;;;;;;;8.50;3.40;;;;;;;18.30;57.12;101948.88;5031764;28;20459;-49
2022/07/16 10:27:42;;;;;;;5.63;4.17;;;;;;;18.53;58.65;101951.03;5031709;28;20462;-48
2022/07/16 10:30:18;;;;;;;3.67;3.37;;;;;;;18.65;55.48;101944.69;5031762;28;20522;-46
2022/07/16 10:33:13;;;;;;;4.93;3.40;;;;;;;18.52;54.90;101954.75;5031074;28;20456;-49
2022/07/16 10:35:46;;;;;;;6.83;3.20;;;;;;;18.22;56.17;101966.16;5031569;28;20432;-47
2022/07/16 10:38:19;;;;;;;4.77;3.20;;;;;;;18.11;58.40;101974.94;5031709;28;20446;-48
2022/07/16 10:41:13;;;;;;;4.20;3.80;;;;;;;18.36;54.94;101963.38;5031601;28;20447;-46
2022/07/16 10:43:41;;;;;;;5.60;3.53;;;;;;;18.19;57.36;101977.38;5030982;28;20498;-49
2022/07/16 10:46:11;;;;;;;3.70;3.40;;;;;;;18.22;58.72;101979.66;5054760;23;21024;-48
2022/07/16 10:49:14;;;;;;;6.77;3.80;;;;;;;17.91;60.49;101984.19;5031211;28;20430;-50
2022/07/16 10:51:55;;;;;;;8.37;4.20;;;;;;;17.44;57.86;101998.88;5021658;28;20486;-47
2022/07/16 10:54:31;;;;;;;4.00;3.50;;;;;;;17.60;57.83;102003.81;5008008;28;20524;-47
2022/07/16 10:57:00;;;;;;;7.50;4.43;;;;;;;18.22;60.79;102000.44;5010415;28;20461;-50
2022/07/16 10:59:30;;;;;;;4.03;3.63;;;;;;;18.58;58.95;102000.63;5014342;28;20508;-48
2022/07/16 11:01:59;;;;;;;6.93;4.00;;;;;;;18.36;60.47;102014.69;5005634;28;20465;-49
2022/07/16 11:04:37;;;;;;;3.33;3.03;;;;;;;17.95;58.60;102015.13;4994284;28;20476;-45
2022/07/16 11:07:08;;;;;;;6.47;4.03;;;;;;;17.63;59.10;102028.50;5008538;28;20460;-45
2022/07/16 11:09:39;;;;;;;3.93;3.63;;;;;;;17.62;57.62;102018.75;5005657;28;20589;-49
2022/07/16 11:12:14;;;;;;;7.53;3.23;;;;;;;17.76;58.21;102008.75;4996978;28;20518;-48
2022/07/16 11:14:43;;;;;;;5.13;3.30;;;;;;;18.31;56.31;102011.81;5001800;28;20931;-52
2022/07/16 11:17:12;;;;;;;6.20;3.30;;;;;;;18.34;55.96;102023.00;4993798;28;20485;-50
2022/07/16 11:19:41;;;;;;;6.23;3.00;;;;;;;18.50;54.18;102017.13;4981201;28;20450;-45
2022/07/16 11:22:11;;;;;;;8.80;3.10;;;;;;;18.37;53.70;102027.16;4984864;28;20544;-50
2022/07/16 11:24:46;;;;;;;3.43;2.93;;;;;;;18.66;56.06;102027.41;4995025;28;21045;-46
2022/07/16 11:27:14;;;;;;;3.30;3.10;;;;;;;18.34;57.90;102035.69;4995219;28;21092;-50
2022/07/16 11:29:42;;;;;;;3.50;3.20;;;;;;;18.11;57.89;102037.03;4995114;28;21010;-45
2022/07/16 11:32:13;;;;;;;4.10;3.30;;;;;;;18.12;56.53;102027.09;4997294;28;20977;-47
2022/07/16 11:34:41;;;;;;;3.70;3.50;;;;;;;18.26;54.66;102039.47;5011855;28;20523;-52
2022/07/16 11:37:09;;;;;;;4.47;3.30;;;;;;;18.60;59.44;102022.06;5027514;28;20459;-47
2022/07/16 11:39:38;;;;;;;5.13;3.77;;;;;;;18.82;56.50;102036.03;5026572;28;21017;-49
2022/07/16 11:42:07;;;;;;;6.60;3.10;;;;;;;18.91;57.25;102037.41;5012734;28;20997;-46
2022/07/16 11:44:38;;;;;;;6.07;3.87;;;;;;;18.83;55.90;102041.22;5013220;28;20483;-49
2022/07/16 11:47:07;;;;;;;3.20;3.00;;;;;;;18.68;55.84;102035.28;5013029;28;20575;-47